Погода Колодинона неделю

Могилёвская область, Белоруссия

25 - 31 мая
  • 25мая
    Сегодня
    +9°
    +25°
    Ясно и безоблачно
    ВремяПогодаТемператураВлажностьДавлениеВетер, м/сВероятность осадков
    00:00Ясно и безоблачно+14°C56 %758 мм1.3 м/с2 %
    03:00Ясно и безоблачно+12°C58 %758 мм1.3 м/с2 %
    06:00Ясно и безоблачно+12°C64 %758 мм1.4 м/с2 %
    09:00Небольшая облачность+17°C54 %759 мм2.2 м/с2 %
    12:00Ясно и безоблачно+23°C39 %759 мм2.9 м/с2 %
    15:00Ясно и безоблачно+25°C34 %758 мм3.5 м/с2 %
    18:00Ясно и безоблачно+24°C33 %757 мм3.1 м/с2 %
    21:00Ясно и безоблачно+17°C53 %757 мм0.5 м/с2 %
  • 26мая
    Воскресенье
    +10°
    +25°
    Практически безоблачно
    ВремяПогодаТемператураВлажностьДавлениеВетер, м/сВероятность осадков
    00:00Ясно и безоблачно+12°C64 %757 мм0.4 м/с2 %
    03:00Ясно и безоблачно+10°C77 %757 мм0.4 м/с2 %
    06:00Практически безоблачно+10°C81 %757 мм0.6 м/с2 %
    09:00Практически безоблачно+18°C53 %757 мм0.8 м/с2 %
    12:00Облачно с прояснениями+22°C32 %758 мм2.3 м/с2 %
    15:00Практически безоблачно+24°C31 %757 мм2.7 м/с2 %
    18:00Ясно и безоблачно+24°C33 %756 мм2.7 м/с2 %
    21:00Ясно и безоблачно+18°C52 %756 мм0.0 м/с2 %
  • 27мая
    Понедельник
    +12°
    +27°
    Ясно и безоблачно
    ВремяПогодаТемператураВлажностьДавлениеВетер, м/сВероятность осадков
    00:00Ясно и безоблачно+13°C63 %756 мм0.1 м/с2 %
    03:00Облачно с прояснениями+11°C78 %756 мм0.3 м/с2 %
    06:00Ясно и безоблачно+12°C74 %757 мм0.3 м/с2 %
    09:00Ясно и безоблачно+19°C55 %757 мм0.9 м/с2 %
    12:00Ясно и безоблачно+24°C35 %757 мм2.3 м/с2 %
    15:00Ясно и безоблачно+25°C35 %756 мм3.2 м/с2 %
    18:00Ясно и безоблачно+25°C39 %755 мм2.8 м/с9 %
    21:00Ясно и безоблачно+19°C63 %755 мм0.3 м/с7 %
  • 28мая
    Вторник
    +14°
    +28°
    Практически безоблачно
    ВремяПогодаТемператураВлажностьДавлениеВетер, м/сВероятность осадков
    00:00Ясно и безоблачно+15°C74 %755 мм0.4 м/с2 %
    03:00Ясно и безоблачно+13°C83 %755 мм0.4 м/с2 %
    06:00Ясно и безоблачно+14°C84 %754 мм0.6 м/с2 %
    09:00Ясно и безоблачно+20°C62 %755 мм1.1 м/с2 %
    12:00Практически безоблачно+25°C39 %754 мм2.8 м/с11 %
    15:00Практически безоблачно+27°C32 %754 мм2.9 м/с9 %
    18:00Ясно и безоблачно+26°C34 %753 мм2.6 м/с17 %
    21:00Практически безоблачно+21°C53 %752 мм0.7 м/с6 %
Мы используем cookies
Соглашаюсь